createdAt,value
2023-12-09T00:00:39.487Z,101011.31
2023-12-09T00:03:08.190Z,100997.03
2023-12-09T00:05:35.030Z,101001.22
2023-12-09T00:08:01.540Z,101000.25
2023-12-09T00:10:28.737Z,100995.28
2023-12-09T00:12:55.884Z,100993.00
2023-12-09T00:15:22.303Z,100994.13
2023-12-09T00:17:48.853Z,100998.63
2023-12-09T00:20:15.741Z,100991.63
2023-12-09T00:22:42.709Z,101006.22
2023-12-09T00:25:09.297Z,100997.75
2023-12-09T00:27:36.142Z,100991.63
2023-12-09T00:30:02.673Z,100994.41
2023-12-09T00:32:29.470Z,100989.59
2023-12-09T00:34:56.068Z,100988.22
2023-12-09T00:37:22.468Z,100997.47
2023-12-09T00:39:48.906Z,100988.41
2023-12-09T00:42:15.450Z,100999.75
2023-12-09T00:44:43.424Z,100986.88
2023-12-09T00:47:10.382Z,100988.84
2023-12-09T00:49:37.055Z,101010.00
2023-12-09T00:52:03.743Z,101002.69
2023-12-09T00:54:30.581Z,100997.88
2023-12-09T00:56:57.161Z,100989.94
2023-12-09T00:59:23.607Z,100997.59
2023-12-09T01:01:50.053Z,100985.66
2023-12-09T01:04:16.642Z,101007.13
2023-12-09T01:06:43.227Z,101010.69
2023-12-09T01:09:09.728Z,101003.81
2023-12-09T01:11:36.184Z,100996.34
2023-12-09T01:14:02.681Z,100996.44
2023-12-09T01:16:29.174Z,100996.59
2023-12-09T01:18:55.633Z,101006.88
2023-12-09T01:21:22.123Z,101006.69
2023-12-09T01:23:48.578Z,101001.19
2023-12-09T01:26:15.048Z,101000.69
2023-12-09T01:28:41.432Z,100987.00
2023-12-09T01:31:07.820Z,100981.88
2023-12-09T01:33:34.460Z,100992.56
2023-12-09T01:36:00.970Z,100991.56
2023-12-09T01:38:27.433Z,100987.09
2023-12-09T01:40:54.840Z,101004.34
2023-12-09T01:43:21.779Z,101000.94
2023-12-09T01:45:49.246Z,100995.91
2023-12-09T01:48:17.451Z,100997.50
2023-12-09T01:50:44.682Z,100988.81
2023-12-09T01:53:11.343Z,100990.41
2023-12-09T01:55:40.147Z,100984.56
2023-12-09T01:58:06.650Z,100989.59
2023-12-09T02:00:33.944Z,100994.03
2023-12-09T02:03:00.634Z,100997.53
2023-12-09T02:05:28.129Z,100968.06
2023-12-09T02:07:54.558Z,100981.34
2023-12-09T02:10:21.212Z,100977.47
2023-12-09T02:12:53.544Z,100983.50
2023-12-09T02:15:26.860Z,100976.13
2023-12-09T02:18:05.829Z,100973.50
2023-12-09T02:20:32.988Z,100970.72
2023-12-09T02:23:06.232Z,100958.06
2023-12-09T02:25:33.882Z,100951.22
2023-12-09T02:28:04.667Z,100964.34
2023-12-09T02:30:36.843Z,100964.16
2023-12-09T02:33:06.191Z,100955.38
2023-12-09T02:35:38.975Z,100951.50
2023-12-09T02:38:05.913Z,100947.78
2023-12-09T02:40:33.251Z,100951.75
2023-12-09T02:43:00.813Z,100945.47
2023-12-09T02:45:27.311Z,100958.78
2023-12-09T02:47:53.924Z,100963.63
2023-12-09T02:50:20.479Z,100957.44
2023-12-09T02:52:46.942Z,100949.22
2023-12-09T02:55:13.434Z,100944.75
2023-12-09T02:57:39.920Z,100943.22
2023-12-09T03:00:07.590Z,100930.78
2023-12-09T03:02:34.165Z,100936.41
2023-12-09T03:05:00.795Z,100932.44
2023-12-09T03:07:27.357Z,100931.59
2023-12-09T03:09:53.910Z,100925.06
2023-12-09T03:12:20.348Z,100917.59
2023-12-09T03:14:46.781Z,100908.50
2023-12-09T03:17:13.552Z,100914.00
2023-12-09T03:19:40.197Z,100904.72
2023-12-09T03:22:06.819Z,100913.00
2023-12-09T03:24:33.381Z,100908.13
2023-12-09T03:26:59.977Z,100910.72
2023-12-09T03:29:26.402Z,100910.38
2023-12-09T03:31:52.847Z,100900.97
2023-12-09T03:34:19.557Z,100906.19
2023-12-09T03:36:46.074Z,100901.50
2023-12-09T03:39:12.625Z,100901.66
2023-12-09T03:41:39.174Z,100914.53
2023-12-09T03:44:05.689Z,100913.16
2023-12-09T03:46:32.148Z,100908.25
2023-12-09T03:48:58.748Z,100905.84
2023-12-09T03:51:25.338Z,100911.84
2023-12-09T03:53:51.878Z,100911.56
2023-12-09T03:56:24.353Z,100903.59
2023-12-09T03:58:51.472Z,100894.69
2023-12-09T04:01:18.044Z,100896.56
2023-12-09T04:03:44.727Z,100891.44
2023-12-09T04:06:11.389Z,100893.09
2023-12-09T04:08:37.885Z,100894.44
2023-12-09T04:11:06.074Z,100909.88
2023-12-09T04:13:32.509Z,100898.91
2023-12-09T04:15:58.977Z,100898.81
2023-12-09T04:18:25.600Z,100913.56
2023-12-09T04:20:52.134Z,100887.78
2023-12-09T04:23:19.949Z,100887.59
2023-12-09T04:25:46.520Z,100881.75
2023-12-09T04:28:13.049Z,100890.47
2023-12-09T04:30:39.501Z,100876.81
2023-12-09T04:33:06.189Z,100881.19
2023-12-09T04:35:32.702Z,100881.03
2023-12-09T04:37:59.115Z,100877.16
2023-12-09T04:40:25.595Z,100886.97
2023-12-09T04:42:52.024Z,100888.22
2023-12-09T04:45:18.605Z,100872.97
2023-12-09T04:47:45.064Z,100873.31
2023-12-09T04:50:12.259Z,100880.41
2023-12-09T04:52:38.908Z,100867.94
2023-12-09T04:55:05.901Z,100868.00
2023-12-09T04:57:33.033Z,100867.13
2023-12-09T04:59:59.733Z,100860.28
2023-12-09T05:02:26.537Z,100860.56
2023-12-09T05:04:53.990Z,100866.56
2023-12-09T05:07:20.619Z,100861.09
2023-12-09T05:09:47.144Z,100854.19
2023-12-09T05:12:14.063Z,100859.47
2023-12-09T05:14:40.479Z,100857.44
2023-12-09T05:17:06.932Z,100852.22
2023-12-09T05:19:33.542Z,100842.88
2023-12-09T05:22:01.009Z,100845.13
2023-12-09T05:24:27.593Z,100840.91
2023-12-09T05:26:54.033Z,100822.16
2023-12-09T05:29:20.542Z,100827.19
2023-12-09T05:31:46.953Z,100811.09
2023-12-09T05:34:13.604Z,100816.31
2023-12-09T05:36:40.258Z,100810.28
2023-12-09T05:39:07.068Z,100822.78
2023-12-09T05:41:33.542Z,100822.59
2023-12-09T05:44:00.336Z,100822.97
2023-12-09T05:46:26.831Z,100828.91
2023-12-09T05:48:53.529Z,100828.44
2023-12-09T05:51:20.204Z,100814.34
2023-12-09T05:53:46.680Z,100822.88
2023-12-09T05:56:13.221Z,100817.78
2023-12-09T05:58:43.013Z,100815.34
2023-12-09T06:01:09.850Z,100818.81
2023-12-09T06:03:36.365Z,100818.13
2023-12-09T06:06:03.767Z,100817.19
2023-12-09T06:08:30.301Z,100801.03
2023-12-09T06:10:56.843Z,100792.34
2023-12-09T06:13:23.317Z,100801.91
2023-12-09T06:15:51.345Z,100784.28
2023-12-09T06:18:18.522Z,100790.63
2023-12-09T06:20:45.224Z,100780.91
2023-12-09T06:23:11.885Z,100775.06
2023-12-09T06:25:38.381Z,100772.78
2023-12-09T06:28:04.857Z,100775.06
2023-12-09T06:30:31.422Z,100764.19
2023-12-09T06:32:58.062Z,100759.88
2023-12-09T06:35:24.590Z,100759.88
2023-12-09T06:37:51.056Z,100764.09
2023-12-09T06:40:17.548Z,100750.97
2023-12-09T06:42:44.106Z,100750.06
2023-12-09T06:45:10.783Z,100761.28
2023-12-09T06:47:37.503Z,100754.66
2023-12-09T06:50:04.260Z,100741.97
2023-12-09T06:52:30.707Z,100748.97
2023-12-09T06:54:57.302Z,100749.31
2023-12-09T06:57:23.860Z,100737.03
2023-12-09T06:59:50.398Z,100737.03
2023-12-09T07:02:16.867Z,100725.03
2023-12-09T07:04:43.406Z,100727.56
2023-12-09T07:07:16.176Z,100713.13
2023-12-09T07:09:48.076Z,100720.00
2023-12-09T07:12:15.862Z,100703.44
2023-12-09T07:14:42.301Z,100699.22
2023-12-09T07:17:08.771Z,100687.22
2023-12-09T07:19:35.377Z,100700.84
2023-12-09T07:22:04.533Z,100696.56
2023-12-09T07:24:31.448Z,100689.41
2023-12-09T07:26:58.038Z,100675.94
2023-12-09T07:29:27.051Z,100670.75
2023-12-09T07:31:54.755Z,100677.81
2023-12-09T07:34:21.594Z,100658.63
2023-12-09T07:36:48.159Z,100668.84
2023-12-09T07:39:14.711Z,100677.03
2023-12-09T07:41:42.641Z,100669.41
2023-12-09T07:44:09.113Z,100661.69
2023-12-09T07:46:35.632Z,100663.13
2023-12-09T07:49:02.180Z,100656.41
2023-12-09T07:51:29.167Z,100645.00
2023-12-09T07:53:55.709Z,100650.03
2023-12-09T07:56:22.218Z,100645.38
2023-12-09T07:58:48.698Z,100656.84
2023-12-09T08:01:15.244Z,100655.84
2023-12-09T08:03:42.008Z,100652.06
2023-12-09T08:06:08.849Z,100652.38
2023-12-09T08:08:36.199Z,100640.97
2023-12-09T08:11:04.212Z,100649.16
2023-12-09T08:13:30.693Z,100632.28
2023-12-09T08:15:57.174Z,100649.06
2023-12-09T08:18:23.986Z,100637.31
2023-12-09T08:20:50.566Z,100625.22
2023-12-09T08:23:17.046Z,100634.28
2023-12-09T08:25:44.722Z,100617.22
2023-12-09T08:28:11.779Z,100627.97
2023-12-09T08:30:40.198Z,100631.63
2023-12-09T08:33:06.885Z,100625.06
2023-12-09T08:35:33.782Z,100609.84
2023-12-09T08:38:00.285Z,100614.72
2023-12-09T08:40:26.827Z,100615.63
2023-12-09T08:42:53.262Z,100607.25
2023-12-09T08:45:19.883Z,100603.09
2023-12-09T08:47:46.486Z,100576.72
2023-12-09T08:52:44.799Z,100578.94
2023-12-09T08:55:12.051Z,100552.53
2023-12-09T08:57:39.721Z,100557.56
2023-12-09T09:00:09.503Z,100552.41
2023-12-09T09:02:36.182Z,100553.47
2023-12-09T09:05:04.440Z,100546.88
2023-12-09T09:07:31.234Z,100538.19
2023-12-09T09:09:57.665Z,100547.69
2023-12-09T09:12:24.176Z,100554.94
2023-12-09T09:14:50.735Z,100547.31
2023-12-09T09:17:17.771Z,100558.59
2023-12-09T09:19:44.265Z,100544.75
2023-12-09T09:22:10.832Z,100538.53
2023-12-09T09:24:37.949Z,100525.91
2023-12-09T09:27:04.717Z,100515.06
2023-12-09T09:29:31.288Z,100504.28
2023-12-09T09:31:57.689Z,100513.31
2023-12-09T09:34:24.149Z,100518.94
2023-12-09T09:36:50.699Z,100516.31
2023-12-09T09:39:19.028Z,100511.72
2023-12-09T09:42:22.300Z,100502.13
2023-12-09T09:44:56.382Z,100496.34
2023-12-09T09:47:23.025Z,100482.56
2023-12-09T09:49:52.326Z,100475.94
2023-12-09T09:52:23.807Z,100472.31
2023-12-09T09:54:50.834Z,100461.09
2023-12-09T09:57:17.415Z,100448.03
2023-12-09T09:59:44.401Z,100452.06
2023-12-09T10:02:12.562Z,100444.88
2023-12-09T10:04:39.092Z,100428.63
2023-12-09T10:07:06.114Z,100407.94
2023-12-09T10:09:34.740Z,100407.75
2023-12-09T10:12:01.312Z,100391.34
2023-12-09T10:14:27.867Z,100404.38
2023-12-09T10:16:54.915Z,100381.34
2023-12-09T10:19:21.660Z,100369.88
2023-12-09T10:21:48.205Z,100369.47
2023-12-09T10:24:14.758Z,100359.66
2023-12-09T10:26:41.217Z,100359.47
2023-12-09T10:29:08.264Z,100355.84
2023-12-09T10:31:36.725Z,100357.06
2023-12-09T10:34:04.434Z,100351.66
2023-12-09T10:36:31.774Z,100334.81
2023-12-09T10:38:58.679Z,100335.06
2023-12-09T10:41:27.726Z,100325.84
2023-12-09T10:43:57.470Z,100327.06
2023-12-09T10:46:23.881Z,100312.88
2023-12-09T10:48:52.265Z,100298.63
2023-12-09T10:51:20.213Z,100299.44
2023-12-09T10:53:46.799Z,100285.59
2023-12-09T10:56:13.401Z,100278.38
2023-12-09T10:58:41.794Z,100272.56
2023-12-09T11:01:08.554Z,100263.34
2023-12-09T11:03:35.830Z,100261.72
2023-12-09T11:06:07.294Z,100249.50
2023-12-09T11:08:39.548Z,100226.44
2023-12-09T11:11:08.869Z,100222.03
2023-12-09T11:13:36.588Z,100204.59
2023-12-09T11:16:14.770Z,100199.59
2023-12-09T11:18:50.367Z,100181.53
2023-12-09T11:21:17.599Z,100168.69
2023-12-09T11:23:47.247Z,100171.69
2023-12-09T11:26:27.680Z,100155.69
2023-12-09T11:29:06.987Z,100152.44
2023-12-09T11:31:35.566Z,100146.84
2023-12-09T11:34:02.568Z,100140.25
2023-12-09T11:36:30.955Z,100121.78
2023-12-09T11:38:58.784Z,100124.19
2023-12-09T11:41:26.714Z,100097.34
2023-12-09T11:43:54.479Z,100091.91
2023-12-09T11:46:21.427Z,100086.50
2023-12-09T11:48:52.289Z,100075.28
2023-12-09T11:51:19.679Z,100073.28
2023-12-09T11:53:57.229Z,100054.84
2023-12-09T11:56:24.357Z,100031.97
2023-12-09T11:58:51.509Z,100042.75
2023-12-09T12:01:19.169Z,100042.38
2023-12-09T12:03:49.654Z,100036.72
2023-12-09T12:06:18.098Z,100021.28
2023-12-09T12:08:46.902Z,100012.09
2023-12-09T12:11:15.825Z,100011.25
2023-12-09T12:13:42.657Z,100016.88
2023-12-09T12:16:09.494Z,100010.63
2023-12-09T12:18:36.371Z,100000.16
2023-12-09T12:21:04.583Z,99994.59
2023-12-09T12:23:33.167Z,99975.34
2023-12-09T12:25:59.951Z,99963.31
2023-12-09T12:28:27.119Z,99948.25
2023-12-09T12:31:00.905Z,99949.66
2023-12-09T12:33:29.839Z,99932.84
2023-12-09T12:35:56.696Z,99916.41
2023-12-09T12:38:26.912Z,99913.03
2023-12-09T12:40:55.328Z,99904.03
2023-12-09T12:43:22.367Z,99890.59
2023-12-09T12:45:54.066Z,99885.38
2023-12-09T12:48:21.444Z,99870.75
2023-12-09T12:50:51.345Z,99856.75
2023-12-09T12:53:21.711Z,99859.97
2023-12-09T12:55:48.978Z,99834.34
2023-12-09T12:58:15.575Z,99830.50
2023-12-09T13:00:42.866Z,99818.88
2023-12-09T13:03:09.604Z,99810.44
2023-12-09T13:05:36.398Z,99805.88
2023-12-09T13:08:03.000Z,99794.81
2023-12-09T13:10:29.638Z,99784.63
2023-12-09T13:12:56.212Z,99776.16
2023-12-09T13:15:22.914Z,99761.75
2023-12-09T13:17:49.733Z,99744.09
2023-12-09T13:20:16.310Z,99748.09
2023-12-09T13:22:42.807Z,99749.09
2023-12-09T13:25:10.789Z,99721.84
2023-12-09T13:27:38.613Z,99725.28
2023-12-09T13:30:08.019Z,99715.22
2023-12-09T13:32:36.067Z,99707.25
2023-12-09T13:35:04.415Z,99708.69
2023-12-09T13:37:31.297Z,99685.94
2023-12-09T13:39:58.111Z,99686.81
2023-12-09T13:42:24.716Z,99664.78
2023-12-09T13:44:51.432Z,99646.16
2023-12-09T13:47:19.226Z,99647.56
2023-12-09T13:49:46.007Z,99618.16
2023-12-09T13:52:14.369Z,99607.31
2023-12-09T13:54:40.976Z,99594.13
2023-12-09T13:57:09.574Z,99618.53
2023-12-09T13:59:36.320Z,99603.97
2023-12-09T14:02:02.950Z,99591.59
2023-12-09T14:04:29.781Z,99592.38
2023-12-09T14:06:56.364Z,99586.31
2023-12-09T14:09:23.030Z,99582.13
2023-12-09T14:11:49.524Z,99545.50
2023-12-09T14:14:15.980Z,99552.06
2023-12-09T14:16:43.843Z,99530.44
2023-12-09T14:19:11.679Z,99525.66
2023-12-09T14:21:39.415Z,99510.47
2023-12-09T14:24:06.668Z,99504.22
2023-12-09T14:26:35.384Z,99503.41
2023-12-09T14:29:02.347Z,99495.72
2023-12-09T14:31:29.000Z,99474.38
2023-12-09T14:33:55.962Z,99466.47
2023-12-09T14:36:23.042Z,99457.72
2023-12-09T14:38:49.790Z,99455.31
2023-12-09T14:41:16.363Z,99448.53
2023-12-09T14:43:43.658Z,99444.97
2023-12-09T14:46:11.268Z,99424.44
2023-12-09T14:48:38.087Z,99427.03
2023-12-09T14:51:05.002Z,99407.22
2023-12-09T14:53:31.457Z,99378.78
2023-12-09T14:55:57.919Z,99384.50
2023-12-09T14:58:24.434Z,99356.44
2023-12-09T15:00:51.637Z,99314.69
2023-12-09T15:03:18.455Z,99342.97
2023-12-09T15:05:44.951Z,99321.13
2023-12-09T15:08:11.787Z,99309.41
2023-12-09T15:10:39.700Z,99313.38
2023-12-09T15:13:06.513Z,99309.03
2023-12-09T15:15:33.092Z,99296.22
2023-12-09T15:17:59.911Z,99280.69
2023-12-09T15:20:26.459Z,99277.16
2023-12-09T15:22:52.946Z,99277.81
2023-12-09T15:25:19.383Z,99269.66
2023-12-09T15:27:47.102Z,99268.41
2023-12-09T15:30:14.577Z,99266.84
2023-12-09T15:32:42.518Z,99257.66
2023-12-09T15:35:09.486Z,99259.81
2023-12-09T15:37:36.221Z,99265.81
2023-12-09T15:40:03.186Z,99251.63
2023-12-09T15:42:29.913Z,99249.59
2023-12-09T15:44:56.568Z,99244.03
2023-12-09T15:47:23.236Z,99233.88
2023-12-09T15:49:49.920Z,99230.44
2023-12-09T15:52:17.568Z,99233.59
2023-12-09T15:54:44.081Z,99219.91
2023-12-09T15:57:10.968Z,99219.78
2023-12-09T15:59:37.518Z,99198.38
2023-12-09T16:02:04.666Z,99199.63
2023-12-09T16:04:31.226Z,99198.38
2023-12-09T16:06:57.752Z,99199.91
2023-12-09T16:09:24.300Z,99193.97
2023-12-09T16:11:50.837Z,99184.66
2023-12-09T16:14:17.309Z,99175.81
2023-12-09T16:16:44.801Z,99186.44
2023-12-09T16:19:11.559Z,99175.03
2023-12-09T16:21:38.122Z,99176.03
2023-12-09T16:24:05.194Z,99160.88
2023-12-09T16:26:34.751Z,99155.69
2023-12-09T16:29:01.713Z,99154.06
2023-12-09T16:31:28.275Z,99150.91
2023-12-09T16:33:55.052Z,99133.34
2023-12-09T16:36:22.345Z,99142.31
2023-12-09T16:38:48.893Z,99127.63
2023-12-09T16:41:15.434Z,99133.25
2023-12-09T16:43:41.952Z,99126.59
2023-12-09T16:46:08.468Z,99129.88
2023-12-09T16:48:35.276Z,99132.03
2023-12-09T16:51:01.902Z,99120.25
2023-12-09T16:53:28.355Z,99113.81
2023-12-09T16:55:55.491Z,99109.63
2023-12-09T16:58:22.114Z,99114.25
2023-12-09T17:00:48.926Z,99115.03
2023-12-09T17:03:15.517Z,99112.44
2023-12-09T17:05:42.051Z,99100.09
2023-12-09T17:08:08.884Z,99105.88
2023-12-09T17:10:35.435Z,99110.97
2023-12-09T17:13:01.949Z,99119.97
2023-12-09T17:15:28.604Z,99111.34
2023-12-09T17:17:56.330Z,99088.59
2023-12-09T17:20:22.929Z,99085.97
2023-12-09T17:22:49.627Z,99088.94
2023-12-09T17:25:18.127Z,99067.09
2023-12-09T17:27:44.810Z,99066.88
2023-12-09T17:30:16.000Z,99056.09
2023-12-09T17:32:43.099Z,99059.06
2023-12-09T17:35:09.861Z,99056.09
2023-12-09T17:37:36.406Z,99063.25
2023-12-09T17:40:05.668Z,99068.78
2023-12-09T17:42:33.087Z,99078.56
2023-12-09T17:44:59.956Z,99071.06
2023-12-09T17:47:26.606Z,99054.22
2023-12-09T17:49:53.281Z,99062.94
2023-12-09T17:52:19.807Z,99051.97
2023-12-09T17:54:46.402Z,99037.13
2023-12-09T17:57:12.989Z,99035.88
2023-12-09T17:59:39.541Z,99042.22
2023-12-09T18:02:07.149Z,99051.72
2023-12-09T18:04:33.699Z,99075.28
2023-12-09T18:07:00.271Z,99064.97
2023-12-09T18:09:26.895Z,99062.28
2023-12-09T18:11:55.439Z,99042.66
2023-12-09T18:14:21.920Z,99050.41
2023-12-09T18:16:48.405Z,99047.09
2023-12-09T18:19:15.208Z,99038.16
2023-12-09T18:21:41.824Z,99060.25
2023-12-09T18:24:08.510Z,99032.03
2023-12-09T18:26:35.422Z,99028.31
2023-12-09T18:29:02.019Z,99026.38
2023-12-09T18:31:28.992Z,99040.63
2023-12-09T18:33:55.610Z,99035.06
2023-12-09T18:36:22.256Z,99027.16
2023-12-09T18:38:49.026Z,99037.69
2023-12-09T18:41:15.566Z,99016.03
2023-12-09T18:43:42.154Z,99035.53
2023-12-09T18:46:08.867Z,99031.09
2023-12-09T18:48:35.462Z,99025.88
2023-12-09T18:51:02.916Z,99025.53
2023-12-09T18:53:30.440Z,99030.19
2023-12-09T18:55:57.091Z,99055.88
2023-12-09T18:58:24.021Z,99043.19
2023-12-09T19:01:01.405Z,99048.75
2023-12-09T19:03:31.788Z,99063.75
2023-12-09T19:05:59.383Z,99063.41
2023-12-09T19:08:26.238Z,99060.88
2023-12-09T19:10:52.724Z,99059.25
2023-12-09T19:13:19.240Z,99075.28
2023-12-09T19:15:46.120Z,99059.16
2023-12-09T19:18:13.146Z,99069.91
2023-12-09T19:20:39.745Z,99080.19
2023-12-09T19:23:06.276Z,99095.06
2023-12-09T19:25:32.700Z,99099.34
2023-12-09T19:28:00.252Z,99086.28
2023-12-09T19:30:27.362Z,99107.94
2023-12-09T19:32:53.888Z,99105.06
2023-12-09T19:35:21.973Z,99109.25
2023-12-09T19:37:49.568Z,99107.53
2023-12-09T19:40:16.236Z,99109.66
2023-12-09T19:42:42.918Z,99120.75
2023-12-09T19:45:10.019Z,99138.31
2023-12-09T19:47:36.718Z,99129.91
2023-12-09T19:50:04.161Z,99137.31
2023-12-09T19:52:30.957Z,99138.88
2023-12-09T19:54:57.696Z,99141.72
2023-12-09T19:57:24.350Z,99155.09
2023-12-09T19:59:50.925Z,99165.56
2023-12-09T20:02:17.552Z,99162.38
2023-12-09T20:04:44.185Z,99162.56
2023-12-09T20:07:10.837Z,99183.53
2023-12-09T20:09:37.415Z,99173.47
2023-12-09T20:12:04.232Z,99181.56
2023-12-09T20:14:30.702Z,99188.59
2023-12-09T20:16:57.201Z,99205.38
2023-12-09T20:19:26.004Z,99207.38
2023-12-09T20:21:53.106Z,99211.78
2023-12-09T20:24:19.655Z,99216.94
2023-12-09T20:26:46.404Z,99231.25
2023-12-09T20:29:12.903Z,99222.19
2023-12-09T20:31:39.434Z,99238.91
2023-12-09T20:34:06.106Z,99230.31
2023-12-09T20:36:33.009Z,99224.53
2023-12-09T20:38:59.500Z,99246.78
2023-12-09T20:41:25.990Z,99242.00
2023-12-09T20:43:53.205Z,99236.16
2023-12-09T20:46:19.885Z,99249.41
2023-12-09T20:48:46.498Z,99256.91
2023-12-09T20:51:13.071Z,99275.81
2023-12-09T20:53:39.571Z,99280.03
2023-12-09T20:56:07.668Z,99278.44
2023-12-09T20:58:34.198Z,99293.44
2023-12-09T21:01:02.453Z,99293.31
2023-12-09T21:03:29.288Z,99303.53
2023-12-09T21:05:55.860Z,99315.13
2023-12-09T21:08:22.409Z,99330.34
2023-12-09T21:10:48.918Z,99322.16
2023-12-09T21:13:15.461Z,99331.47
2023-12-09T21:15:42.284Z,99326.91
2023-12-09T21:18:10.127Z,99325.00
2023-12-09T21:20:37.310Z,99332.47
2023-12-09T21:23:04.254Z,99333.81
2023-12-09T21:25:30.895Z,99341.44
2023-12-09T21:27:57.465Z,99350.31
2023-12-09T21:30:24.111Z,99349.75
2023-12-09T21:32:50.806Z,99357.91
2023-12-09T21:35:17.346Z,99363.22
2023-12-09T21:37:44.078Z,99356.53
2023-12-09T21:40:11.779Z,99364.72
2023-12-09T21:42:38.444Z,99376.63
2023-12-09T21:45:05.557Z,99374.47
2023-12-09T21:47:32.399Z,99377.56
2023-12-09T21:49:58.990Z,99391.19
2023-12-09T21:52:25.579Z,99396.41
2023-12-09T21:54:52.141Z,99392.09
2023-12-09T21:57:18.959Z,99407.09
2023-12-09T21:59:45.469Z,99413.44
2023-12-09T22:02:12.139Z,99424.59
2023-12-09T22:04:38.745Z,99419.94
2023-12-09T22:07:05.479Z,99423.31
2023-12-09T22:09:32.068Z,99443.53
2023-12-09T22:11:58.645Z,99437.75
2023-12-09T22:14:25.303Z,99442.75
2023-12-09T22:16:52.482Z,99452.16
2023-12-09T22:19:19.090Z,99458.19
2023-12-09T22:21:45.654Z,99461.38
2023-12-09T22:24:12.275Z,99450.25
2023-12-09T22:26:43.362Z,99465.47
2023-12-09T22:29:09.876Z,99480.09
2023-12-09T22:31:45.530Z,99477.97
2023-12-09T22:34:12.399Z,99490.56
2023-12-09T22:36:39.461Z,99481.59
2023-12-09T22:39:09.243Z,99483.28
2023-12-09T22:41:35.929Z,99497.16
2023-12-09T22:44:02.445Z,99502.28
2023-12-09T22:46:32.361Z,99503.28
2023-12-09T22:48:59.751Z,99504.19
2023-12-09T22:51:27.797Z,99506.72
2023-12-09T22:53:54.692Z,99527.81
2023-12-09T22:56:21.989Z,99523.38
2023-12-09T22:58:50.119Z,99528.72
2023-12-09T23:01:21.135Z,99530.97
2023-12-09T23:03:47.783Z,99536.31
2023-12-09T23:06:14.369Z,99541.06
2023-12-09T23:08:40.882Z,99550.69
2023-12-09T23:11:07.337Z,99546.91
2023-12-09T23:13:33.866Z,99543.97
2023-12-09T23:16:01.097Z,99559.63
2023-12-09T23:18:28.059Z,99563.25
2023-12-09T23:20:54.600Z,99579.03
2023-12-09T23:23:21.168Z,99576.06
2023-12-09T23:25:47.615Z,99579.94
2023-12-09T23:28:14.124Z,99579.78
2023-12-09T23:30:41.035Z,99582.41
2023-12-09T23:33:07.730Z,99576.03
2023-12-09T23:35:34.588Z,99580.78
2023-12-09T23:38:01.391Z,99565.63
2023-12-09T23:40:28.667Z,99582.44
2023-12-09T23:42:55.212Z,99574.94
2023-12-09T23:45:21.737Z,99570.13
2023-12-09T23:47:48.279Z,99580.22
2023-12-09T23:50:14.896Z,99578.16
2023-12-09T23:52:41.414Z,99581.28
2023-12-09T23:55:08.354Z,99590.69
2023-12-09T23:57:34.879Z,99584.25
